sensor_id;sensor_type;location;lat;lon;timestamp;P1;durP1;ratioP1;P2;durP2;ratioP2
9675;SDS011;4876;42.656;23.292;2023-12-22T00:00:45;23.42;;;12.25;;
9675;SDS011;4876;42.656;23.292;2023-12-22T00:03:12;29.67;;;15.20;;
9675;SDS011;4876;42.656;23.292;2023-12-22T00:05:39;30.17;;;13.98;;
9675;SDS011;4876;42.656;23.292;2023-12-22T00:08:05;23.45;;;12.25;;
9675;SDS011;4876;42.656;23.292;2023-12-22T00:10:30;23.08;;;10.65;;
9675;SDS011;4876;42.656;23.292;2023-12-22T00:12:56;18.63;;;9.55;;
9675;SDS011;4876;42.656;23.292;2023-12-22T00:15:21;25.23;;;11.63;;
9675;SDS011;4876;42.656;23.292;2023-12-22T00:17:47;27.23;;;12.98;;
9675;SDS011;4876;42.656;23.292;2023-12-22T00:20:12;30.73;;;12.50;;
9675;SDS011;4876;42.656;23.292;2023-12-22T00:22:39;27.50;;;12.02;;
9675;SDS011;4876;42.656;23.292;2023-12-22T00:25:05;22.77;;;10.90;;
9675;SDS011;4876;42.656;23.292;2023-12-22T00:27:33;25.80;;;11.48;;
9675;SDS011;4876;42.656;23.292;2023-12-22T00:29:58;24.15;;;12.85;;
9675;SDS011;4876;42.656;23.292;2023-12-22T00:32:24;27.70;;;12.45;;
9675;SDS011;4876;42.656;23.292;2023-12-22T00:34:50;28.05;;;11.02;;
9675;SDS011;4876;42.656;23.292;2023-12-22T00:37:15;25.25;;;11.95;;
9675;SDS011;4876;42.656;23.292;2023-12-22T00:39:41;23.05;;;10.98;;
9675;SDS011;4876;42.656;23.292;2023-12-22T00:42:06;24.50;;;11.15;;
9675;SDS011;4876;42.656;23.292;2023-12-22T00:44:32;22.35;;;10.90;;
9675;SDS011;4876;42.656;23.292;2023-12-22T00:46:57;13.95;;;7.80;;
9675;SDS011;4876;42.656;23.292;2023-12-22T00:49:23;25.88;;;13.55;;
9675;SDS011;4876;42.656;23.292;2023-12-22T00:51:48;23.77;;;10.15;;
9675;SDS011;4876;42.656;23.292;2023-12-22T00:54:14;24.63;;;13.38;;
9675;SDS011;4876;42.656;23.292;2023-12-22T00:56:39;23.13;;;10.23;;
9675;SDS011;4876;42.656;23.292;2023-12-22T00:59:05;20.05;;;9.85;;
9675;SDS011;4876;42.656;23.292;2023-12-22T01:01:30;21.02;;;10.43;;
9675;SDS011;4876;42.656;23.292;2023-12-22T01:03:56;17.90;;;9.38;;
9675;SDS011;4876;42.656;23.292;2023-12-22T01:06:22;20.38;;;9.00;;
9675;SDS011;4876;42.656;23.292;2023-12-22T01:08:48;18.30;;;9.23;;
9675;SDS011;4876;42.656;23.292;2023-12-22T01:11:16;17.67;;;9.50;;
9675;SDS011;4876;42.656;23.292;2023-12-22T01:13:42;21.38;;;9.77;;
9675;SDS011;4876;42.656;23.292;2023-12-22T01:16:08;25.20;;;10.75;;
9675;SDS011;4876;42.656;23.292;2023-12-22T01:18:33;21.48;;;9.50;;
9675;SDS011;4876;42.656;23.292;2023-12-22T01:20:59;18.98;;;9.65;;
9675;SDS011;4876;42.656;23.292;2023-12-22T01:23:25;19.52;;;9.40;;
9675;SDS011;4876;42.656;23.292;2023-12-22T01:25:50;17.95;;;8.40;;
9675;SDS011;4876;42.656;23.292;2023-12-22T01:28:16;20.98;;;9.05;;
9675;SDS011;4876;42.656;23.292;2023-12-22T01:30:41;16.65;;;9.30;;
9675;SDS011;4876;42.656;23.292;2023-12-22T01:33:07;17.40;;;9.88;;
9675;SDS011;4876;42.656;23.292;2023-12-22T01:35:32;19.38;;;9.07;;
9675;SDS011;4876;42.656;23.292;2023-12-22T01:37:58;20.55;;;9.10;;
9675;SDS011;4876;42.656;23.292;2023-12-22T01:40:23;15.77;;;7.82;;
9675;SDS011;4876;42.656;23.292;2023-12-22T01:42:49;21.77;;;8.55;;
9675;SDS011;4876;42.656;23.292;2023-12-22T01:45:15;19.10;;;8.50;;
9675;SDS011;4876;42.656;23.292;2023-12-22T01:47:40;19.27;;;8.63;;
9675;SDS011;4876;42.656;23.292;2023-12-22T01:50:07;13.00;;;5.88;;
9675;SDS011;4876;42.656;23.292;2023-12-22T01:52:36;14.30;;;7.88;;
9675;SDS011;4876;42.656;23.292;2023-12-22T01:55:07;15.07;;;8.18;;
9675;SDS011;4876;42.656;23.292;2023-12-22T01:57:36;16.23;;;7.70;;
9675;SDS011;4876;42.656;23.292;2023-12-22T02:00:02;15.32;;;7.70;;
9675;SDS011;4876;42.656;23.292;2023-12-22T02:02:29;15.68;;;7.60;;
9675;SDS011;4876;42.656;23.292;2023-12-22T02:04:55;18.73;;;8.07;;
9675;SDS011;4876;42.656;23.292;2023-12-22T02:07:22;16.67;;;8.35;;
9675;SDS011;4876;42.656;23.292;2023-12-22T02:09:48;20.35;;;9.48;;
9675;SDS011;4876;42.656;23.292;2023-12-22T02:12:14;18.52;;;8.82;;
9675;SDS011;4876;42.656;23.292;2023-12-22T02:14:39;17.65;;;9.45;;
9675;SDS011;4876;42.656;23.292;2023-12-22T02:17:13;17.45;;;8.88;;
9675;SDS011;4876;42.656;23.292;2023-12-22T02:19:47;18.35;;;7.95;;
9675;SDS011;4876;42.656;23.292;2023-12-22T02:22:13;19.55;;;8.07;;
9675;SDS011;4876;42.656;23.292;2023-12-22T02:24:39;19.48;;;8.70;;
9675;SDS011;4876;42.656;23.292;2023-12-22T02:32:40;32.05;;;12.15;;
9675;SDS011;4876;42.656;23.292;2023-12-22T02:35:11;17.88;;;8.55;;
9675;SDS011;4876;42.656;23.292;2023-12-22T02:37:42;22.20;;;11.02;;
9675;SDS011;4876;42.656;23.292;2023-12-22T02:40:10;18.83;;;8.93;;
9675;SDS011;4876;42.656;23.292;2023-12-22T02:42:36;18.50;;;8.85;;
9675;SDS011;4876;42.656;23.292;2023-12-22T02:45:03;24.50;;;8.07;;
9675;SDS011;4876;42.656;23.292;2023-12-22T02:47:30;17.80;;;9.43;;
9675;SDS011;4876;42.656;23.292;2023-12-22T02:49:57;21.00;;;8.35;;
9675;SDS011;4876;42.656;23.292;2023-12-22T02:52:23;22.38;;;10.88;;
9675;SDS011;4876;42.656;23.292;2023-12-22T02:54:48;16.67;;;8.35;;
9675;SDS011;4876;42.656;23.292;2023-12-22T02:57:14;17.83;;;9.27;;
9675;SDS011;4876;42.656;23.292;2023-12-22T02:59:39;18.85;;;9.32;;
9675;SDS011;4876;42.656;23.292;2023-12-22T03:02:05;17.75;;;8.70;;
9675;SDS011;4876;42.656;23.292;2023-12-22T03:04:30;19.02;;;9.02;;
9675;SDS011;4876;42.656;23.292;2023-12-22T03:06:56;17.27;;;8.35;;
9675;SDS011;4876;42.656;23.292;2023-12-22T03:09:21;17.42;;;7.53;;
9675;SDS011;4876;42.656;23.292;2023-12-22T03:11:47;15.38;;;8.63;;
9675;SDS011;4876;42.656;23.292;2023-12-22T03:14:14;15.25;;;9.10;;
9675;SDS011;4876;42.656;23.292;2023-12-22T03:16:40;20.52;;;10.52;;
9675;SDS011;4876;42.656;23.292;2023-12-22T03:19:08;22.00;;;9.70;;
9675;SDS011;4876;42.656;23.292;2023-12-22T03:21:34;21.60;;;9.10;;
9675;SDS011;4876;42.656;23.292;2023-12-22T03:23:59;17.30;;;8.90;;
9675;SDS011;4876;42.656;23.292;2023-12-22T03:26:28;19.38;;;8.68;;
9675;SDS011;4876;42.656;23.292;2023-12-22T03:28:53;16.17;;;8.57;;
9675;SDS011;4876;42.656;23.292;2023-12-22T03:31:19;17.10;;;9.18;;
9675;SDS011;4876;42.656;23.292;2023-12-22T03:33:45;17.63;;;8.70;;
9675;SDS011;4876;42.656;23.292;2023-12-22T03:36:10;21.23;;;9.30;;
9675;SDS011;4876;42.656;23.292;2023-12-22T03:38:36;19.05;;;9.10;;
9675;SDS011;4876;42.656;23.292;2023-12-22T03:41:01;23.23;;;10.13;;
9675;SDS011;4876;42.656;23.292;2023-12-22T03:43:27;21.33;;;10.77;;
9675;SDS011;4876;42.656;23.292;2023-12-22T03:45:53;19.77;;;9.63;;
9675;SDS011;4876;42.656;23.292;2023-12-22T03:48:19;20.67;;;9.40;;
9675;SDS011;4876;42.656;23.292;2023-12-22T03:50:44;20.90;;;9.60;;
9675;SDS011;4876;42.656;23.292;2023-12-22T03:53:10;20.02;;;9.82;;
9675;SDS011;4876;42.656;23.292;2023-12-22T03:55:35;23.10;;;10.00;;
9675;SDS011;4876;42.656;23.292;2023-12-22T03:58:01;16.17;;;9.65;;
9675;SDS011;4876;42.656;23.292;2023-12-22T04:00:28;20.58;;;9.68;;
9675;SDS011;4876;42.656;23.292;2023-12-22T04:02:54;22.45;;;9.90;;
9675;SDS011;4876;42.656;23.292;2023-12-22T04:05:19;21.70;;;9.57;;
9675;SDS011;4876;42.656;23.292;2023-12-22T04:07:45;21.17;;;9.05;;
9675;SDS011;4876;42.656;23.292;2023-12-22T04:10:10;20.90;;;8.57;;
9675;SDS011;4876;42.656;23.292;2023-12-22T04:12:36;20.98;;;9.90;;
9675;SDS011;4876;42.656;23.292;2023-12-22T04:15:02;17.60;;;8.98;;
9675;SDS011;4876;42.656;23.292;2023-12-22T04:17:28;14.60;;;8.15;;
9675;SDS011;4876;42.656;23.292;2023-12-22T04:19:53;19.30;;;9.05;;
9675;SDS011;4876;42.656;23.292;2023-12-22T04:22:19;19.65;;;9.70;;
9675;SDS011;4876;42.656;23.292;2023-12-22T04:24:44;16.15;;;8.43;;
9675;SDS011;4876;42.656;23.292;2023-12-22T04:27:10;19.70;;;9.35;;
9675;SDS011;4876;42.656;23.292;2023-12-22T04:29:35;21.63;;;9.80;;
9675;SDS011;4876;42.656;23.292;2023-12-22T04:32:01;19.02;;;8.38;;
9675;SDS011;4876;42.656;23.292;2023-12-22T04:34:26;22.48;;;9.93;;
9675;SDS011;4876;42.656;23.292;2023-12-22T04:36:52;17.30;;;9.77;;
9675;SDS011;4876;42.656;23.292;2023-12-22T04:39:17;21.23;;;10.00;;
9675;SDS011;4876;42.656;23.292;2023-12-22T04:41:43;17.85;;;8.27;;
9675;SDS011;4876;42.656;23.292;2023-12-22T04:44:08;19.17;;;9.15;;
9675;SDS011;4876;42.656;23.292;2023-12-22T04:46:34;21.58;;;9.15;;
9675;SDS011;4876;42.656;23.292;2023-12-22T04:48:59;20.70;;;9.50;;
9675;SDS011;4876;42.656;23.292;2023-12-22T04:51:26;20.00;;;9.98;;
9675;SDS011;4876;42.656;23.292;2023-12-22T04:53:52;20.38;;;9.85;;
9675;SDS011;4876;42.656;23.292;2023-12-22T04:56:18;19.52;;;9.55;;
9675;SDS011;4876;42.656;23.292;2023-12-22T04:58:43;22.35;;;9.60;;
9675;SDS011;4876;42.656;23.292;2023-12-22T05:01:09;20.13;;;10.07;;
9675;SDS011;4876;42.656;23.292;2023-12-22T05:03:34;21.88;;;10.27;;
9675;SDS011;4876;42.656;23.292;2023-12-22T05:06:00;18.08;;;9.82;;
9675;SDS011;4876;42.656;23.292;2023-12-22T05:08:25;22.83;;;10.32;;
9675;SDS011;4876;42.656;23.292;2023-12-22T05:10:51;20.70;;;10.60;;
9675;SDS011;4876;42.656;23.292;2023-12-22T05:13:16;22.15;;;10.50;;
9675;SDS011;4876;42.656;23.292;2023-12-22T05:15:41;19.60;;;9.50;;
9675;SDS011;4876;42.656;23.292;2023-12-22T05:18:08;22.55;;;10.90;;
9675;SDS011;4876;42.656;23.292;2023-12-22T05:20:33;16.75;;;8.25;;
9675;SDS011;4876;42.656;23.292;2023-12-22T05:22:59;17.77;;;9.45;;
9675;SDS011;4876;42.656;23.292;2023-12-22T05:25:25;16.85;;;7.65;;
9675;SDS011;4876;42.656;23.292;2023-12-22T05:27:50;18.50;;;8.68;;
9675;SDS011;4876;42.656;23.292;2023-12-22T05:30:17;17.70;;;8.55;;
9675;SDS011;4876;42.656;23.292;2023-12-22T05:32:43;22.27;;;10.38;;
9675;SDS011;4876;42.656;23.292;2023-12-22T05:35:09;18.63;;;8.93;;
9675;SDS011;4876;42.656;23.292;2023-12-22T05:37:35;13.35;;;6.75;;
9675;SDS011;4876;42.656;23.292;2023-12-22T05:40:01;17.15;;;9.13;;
9675;SDS011;4876;42.656;23.292;2023-12-22T05:42:27;20.98;;;9.70;;
9675;SDS011;4876;42.656;23.292;2023-12-22T05:44:52;18.30;;;9.05;;
9675;SDS011;4876;42.656;23.292;2023-12-22T05:47:18;16.88;;;8.65;;
9675;SDS011;4876;42.656;23.292;2023-12-22T05:49:43;22.52;;;10.07;;
9675;SDS011;4876;42.656;23.292;2023-12-22T05:52:09;19.10;;;9.18;;
9675;SDS011;4876;42.656;23.292;2023-12-22T05:54:35;17.85;;;9.20;;
9675;SDS011;4876;42.656;23.292;2023-12-22T05:57:02;14.07;;;7.00;;
9675;SDS011;4876;42.656;23.292;2023-12-22T05:59:30;19.90;;;10.10;;
9675;SDS011;4876;42.656;23.292;2023-12-22T06:01:57;16.00;;;8.52;;
9675;SDS011;4876;42.656;23.292;2023-12-22T06:04:24;18.55;;;9.75;;
9675;SDS011;4876;42.656;23.292;2023-12-22T06:06:50;18.65;;;10.25;;
9675;SDS011;4876;42.656;23.292;2023-12-22T06:09:15;19.70;;;9.50;;
9675;SDS011;4876;42.656;23.292;2023-12-22T06:11:43;20.00;;;10.20;;
9675;SDS011;4876;42.656;23.292;2023-12-22T06:14:10;19.42;;;10.80;;
9675;SDS011;4876;42.656;23.292;2023-12-22T06:16:36;19.30;;;8.82;;
9675;SDS011;4876;42.656;23.292;2023-12-22T06:19:01;16.58;;;8.52;;
9675;SDS011;4876;42.656;23.292;2023-12-22T06:21:27;20.63;;;9.43;;
9675;SDS011;4876;42.656;23.292;2023-12-22T06:23:52;18.58;;;9.85;;
9675;SDS011;4876;42.656;23.292;2023-12-22T06:26:18;18.48;;;9.73;;
9675;SDS011;4876;42.656;23.292;2023-12-22T06:28:43;18.55;;;9.48;;
9675;SDS011;4876;42.656;23.292;2023-12-22T06:31:16;18.42;;;9.70;;
9675;SDS011;4876;42.656;23.292;2023-12-22T06:33:46;17.08;;;9.30;;
9675;SDS011;4876;42.656;23.292;2023-12-22T06:36:19;18.33;;;9.07;;
9675;SDS011;4876;42.656;23.292;2023-12-22T06:38:50;17.15;;;7.80;;
9675;SDS011;4876;42.656;23.292;2023-12-22T06:41:23;15.70;;;7.55;;
9675;SDS011;4876;42.656;23.292;2023-12-22T06:43:53;19.98;;;9.93;;
9675;SDS011;4876;42.656;23.292;2023-12-22T06:46:19;21.58;;;8.77;;
9675;SDS011;4876;42.656;23.292;2023-12-22T06:48:45;13.82;;;8.05;;
9675;SDS011;4876;42.656;23.292;2023-12-22T06:51:28;12.48;;;7.13;;
9675;SDS011;4876;42.656;23.292;2023-12-22T06:53:59;12.45;;;6.50;;
9675;SDS011;4876;42.656;23.292;2023-12-22T06:56:26;17.95;;;8.88;;
9675;SDS011;4876;42.656;23.292;2023-12-22T06:58:53;16.33;;;8.40;;
9675;SDS011;4876;42.656;23.292;2023-12-22T07:03:50;19.17;;;8.38;;
9675;SDS011;4876;42.656;23.292;2023-12-22T07:06:17;17.42;;;8.40;;
9675;SDS011;4876;42.656;23.292;2023-12-22T07:08:44;12.18;;;5.97;;
9675;SDS011;4876;42.656;23.292;2023-12-22T07:11:10;14.63;;;7.18;;
9675;SDS011;4876;42.656;23.292;2023-12-22T07:13:36;16.13;;;7.78;;
9675;SDS011;4876;42.656;23.292;2023-12-22T07:16:02;23.10;;;9.40;;
9675;SDS011;4876;42.656;23.292;2023-12-22T07:18:29;17.77;;;7.80;;
9675;SDS011;4876;42.656;23.292;2023-12-22T07:20:59;17.15;;;8.98;;
9675;SDS011;4876;42.656;23.292;2023-12-22T07:23:25;17.98;;;8.70;;
9675;SDS011;4876;42.656;23.292;2023-12-22T07:25:50;17.23;;;9.13;;
9675;SDS011;4876;42.656;23.292;2023-12-22T07:28:16;15.85;;;8.63;;
9675;SDS011;4876;42.656;23.292;2023-12-22T07:30:41;18.13;;;8.27;;
9675;SDS011;4876;42.656;23.292;2023-12-22T07:33:07;18.35;;;7.75;;
9675;SDS011;4876;42.656;23.292;2023-12-22T07:35:33;19.20;;;9.52;;
9675;SDS011;4876;42.656;23.292;2023-12-22T07:37:59;18.25;;;8.85;;
9675;SDS011;4876;42.656;23.292;2023-12-22T07:40:25;15.07;;;7.88;;
9675;SDS011;4876;42.656;23.292;2023-12-22T07:42:50;21.38;;;10.75;;
9675;SDS011;4876;42.656;23.292;2023-12-22T07:45:16;21.33;;;9.02;;
9675;SDS011;4876;42.656;23.292;2023-12-22T07:47:41;21.83;;;11.13;;
9675;SDS011;4876;42.656;23.292;2023-12-22T07:50:07;24.83;;;10.50;;
9675;SDS011;4876;42.656;23.292;2023-12-22T07:52:36;19.83;;;10.02;;
9675;SDS011;4876;42.656;23.292;2023-12-22T07:55:07;25.50;;;10.35;;
9675;SDS011;4876;42.656;23.292;2023-12-22T07:57:36;20.60;;;10.80;;
9675;SDS011;4876;42.656;23.292;2023-12-22T08:00:04;19.40;;;10.65;;
9675;SDS011;4876;42.656;23.292;2023-12-22T08:02:30;20.70;;;10.38;;
9675;SDS011;4876;42.656;23.292;2023-12-22T08:04:55;21.17;;;10.02;;
9675;SDS011;4876;42.656;23.292;2023-12-22T08:07:21;17.67;;;10.85;;
9675;SDS011;4876;42.656;23.292;2023-12-22T08:09:46;18.27;;;9.40;;
9675;SDS011;4876;42.656;23.292;2023-12-22T08:12:12;18.08;;;9.40;;
9675;SDS011;4876;42.656;23.292;2023-12-22T08:14:37;18.60;;;9.48;;
9675;SDS011;4876;42.656;23.292;2023-12-22T08:17:03;18.75;;;9.80;;
9675;SDS011;4876;42.656;23.292;2023-12-22T08:19:29;19.30;;;10.52;;
9675;SDS011;4876;42.656;23.292;2023-12-22T08:21:54;18.65;;;10.32;;
9675;SDS011;4876;42.656;23.292;2023-12-22T08:24:20;18.50;;;8.85;;
9675;SDS011;4876;42.656;23.292;2023-12-22T08:26:46;23.73;;;10.52;;
9675;SDS011;4876;42.656;23.292;2023-12-22T08:29:12;21.50;;;10.27;;
9675;SDS011;4876;42.656;23.292;2023-12-22T08:31:37;26.20;;;11.35;;
9675;SDS011;4876;42.656;23.292;2023-12-22T08:34:03;20.65;;;9.75;;
9675;SDS011;4876;42.656;23.292;2023-12-22T08:36:28;20.38;;;10.85;;
9675;SDS011;4876;42.656;23.292;2023-12-22T08:38:54;17.60;;;9.82;;
9675;SDS011;4876;42.656;23.292;2023-12-22T08:41:19;20.52;;;10.00;;
9675;SDS011;4876;42.656;23.292;2023-12-22T08:43:45;26.23;;;12.02;;
9675;SDS011;4876;42.656;23.292;2023-12-22T08:46:10;22.45;;;11.90;;
9675;SDS011;4876;42.656;23.292;2023-12-22T08:48:37;23.08;;;11.95;;
9675;SDS011;4876;42.656;23.292;2023-12-22T08:51:02;28.15;;;14.30;;
9675;SDS011;4876;42.656;23.292;2023-12-22T08:53:29;23.17;;;12.40;;
9675;SDS011;4876;42.656;23.292;2023-12-22T08:55:59;26.13;;;13.00;;
9675;SDS011;4876;42.656;23.292;2023-12-22T08:58:25;23.17;;;12.85;;
9675;SDS011;4876;42.656;23.292;2023-12-22T09:00:51;20.80;;;11.50;;
9675;SDS011;4876;42.656;23.292;2023-12-22T09:03:17;23.55;;;11.10;;
9675;SDS011;4876;42.656;23.292;2023-12-22T09:05:42;22.95;;;11.95;;
9675;SDS011;4876;42.656;23.292;2023-12-22T09:08:08;27.60;;;12.43;;
9675;SDS011;4876;42.656;23.292;2023-12-22T09:10:33;26.23;;;11.90;;
9675;SDS011;4876;42.656;23.292;2023-12-22T09:12:59;20.52;;;12.05;;
9675;SDS011;4876;42.656;23.292;2023-12-22T09:15:25;24.30;;;12.65;;
9675;SDS011;4876;42.656;23.292;2023-12-22T09:17:52;22.35;;;11.85;;
9675;SDS011;4876;42.656;23.292;2023-12-22T09:20:18;28.85;;;13.32;;
9675;SDS011;4876;42.656;23.292;2023-12-22T09:22:43;28.30;;;13.13;;
9675;SDS011;4876;42.656;23.292;2023-12-22T09:25:09;28.73;;;14.93;;
9675;SDS011;4876;42.656;23.292;2023-12-22T09:27:34;37.97;;;16.20;;
9675;SDS011;4876;42.656;23.292;2023-12-22T09:30:00;30.55;;;16.30;;
9675;SDS011;4876;42.656;23.292;2023-12-22T09:32:26;30.60;;;16.95;;
9675;SDS011;4876;42.656;23.292;2023-12-22T09:34:52;33.13;;;17.13;;
9675;SDS011;4876;42.656;23.292;2023-12-22T09:37:17;31.20;;;16.45;;
9675;SDS011;4876;42.656;23.292;2023-12-22T09:39:43;30.77;;;16.67;;
9675;SDS011;4876;42.656;23.292;2023-12-22T09:42:08;23.52;;;13.88;;
9675;SDS011;4876;42.656;23.292;2023-12-22T09:44:34;28.95;;;14.00;;
9675;SDS011;4876;42.656;23.292;2023-12-22T09:47:03;24.95;;;12.75;;
9675;SDS011;4876;42.656;23.292;2023-12-22T09:49:31;20.85;;;11.00;;
9675;SDS011;4876;42.656;23.292;2023-12-22T09:51:58;24.35;;;11.77;;
9675;SDS011;4876;42.656;23.292;2023-12-22T09:54:27;19.95;;;10.35;;
9675;SDS011;4876;42.656;23.292;2023-12-22T09:56:53;21.20;;;10.20;;
9675;SDS011;4876;42.656;23.292;2023-12-22T09:59:19;20.10;;;11.00;;
9675;SDS011;4876;42.656;23.292;2023-12-22T10:01:46;21.30;;;12.48;;
9675;SDS011;4876;42.656;23.292;2023-12-22T10:04:13;27.27;;;12.65;;
9675;SDS011;4876;42.656;23.292;2023-12-22T10:06:40;24.27;;;11.98;;
9675;SDS011;4876;42.656;23.292;2023-12-22T10:09:06;28.58;;;14.18;;
9675;SDS011;4876;42.656;23.292;2023-12-22T10:11:34;23.73;;;13.70;;
9675;SDS011;4876;42.656;23.292;2023-12-22T10:14:03;27.77;;;13.63;;
9675;SDS011;4876;42.656;23.292;2023-12-22T10:16:31;27.00;;;13.30;;
9675;SDS011;4876;42.656;23.292;2023-12-22T10:18:58;19.67;;;11.60;;
9675;SDS011;4876;42.656;23.292;2023-12-22T10:21:25;31.90;;;14.18;;
9675;SDS011;4876;42.656;23.292;2023-12-22T10:23:51;26.35;;;13.07;;
9675;SDS011;4876;42.656;23.292;2023-12-22T10:26:16;22.75;;;12.15;;
9675;SDS011;4876;42.656;23.292;2023-12-22T10:28:42;25.60;;;12.43;;
9675;SDS011;4876;42.656;23.292;2023-12-22T10:31:08;23.63;;;11.43;;
9675;SDS011;4876;42.656;23.292;2023-12-22T10:33:34;21.63;;;12.13;;
9675;SDS011;4876;42.656;23.292;2023-12-22T10:36:00;24.92;;;13.23;;
9675;SDS011;4876;42.656;23.292;2023-12-22T10:38:26;24.13;;;13.10;;
9675;SDS011;4876;42.656;23.292;2023-12-22T10:40:59;29.90;;;13.73;;
9675;SDS011;4876;42.656;23.292;2023-12-22T10:43:24;26.52;;;14.10;;
9675;SDS011;4876;42.656;23.292;2023-12-22T10:45:51;25.45;;;12.48;;
9675;SDS011;4876;42.656;23.292;2023-12-22T10:48:17;25.92;;;11.95;;
9675;SDS011;4876;42.656;23.292;2023-12-22T10:50:43;11.93;;;5.82;;
9675;SDS011;4876;42.656;23.292;2023-12-22T10:53:10;8.18;;;3.45;;
9675;SDS011;4876;42.656;23.292;2023-12-22T10:55:36;7.95;;;4.50;;
9675;SDS011;4876;42.656;23.292;2023-12-22T10:58:02;3.63;;;1.83;;
9675;SDS011;4876;42.656;23.292;2023-12-22T11:00:28;3.60;;;1.75;;
9675;SDS011;4876;42.656;23.292;2023-12-22T11:02:58;2.20;;;1.00;;
9675;SDS011;4876;42.656;23.292;2023-12-22T11:05:29;3.50;;;1.30;;
9675;SDS011;4876;42.656;23.292;2023-12-22T11:07:57;3.15;;;1.30;;
9675;SDS011;4876;42.656;23.292;2023-12-22T11:10:28;2.25;;;1.05;;
9675;SDS011;4876;42.656;23.292;2023-12-22T11:12:56;2.03;;;0.85;;
9675;SDS011;4876;42.656;23.292;2023-12-22T11:15:22;1.40;;;0.90;;
9675;SDS011;4876;42.656;23.292;2023-12-22T11:17:49;1.90;;;1.00;;
9675;SDS011;4876;42.656;23.292;2023-12-22T11:20:16;3.53;;;1.02;;
9675;SDS011;4876;42.656;23.292;2023-12-22T11:22:43;2.50;;;1.00;;
9675;SDS011;4876;42.656;23.292;2023-12-22T11:25:10;1.98;;;0.70;;
9675;SDS011;4876;42.656;23.292;2023-12-22T11:27:37;1.48;;;0.80;;
9675;SDS011;4876;42.656;23.292;2023-12-22T11:30:02;1.30;;;0.50;;
9675;SDS011;4876;42.656;23.292;2023-12-22T11:32:33;1.65;;;0.82;;
9675;SDS011;4876;42.656;23.292;2023-12-22T11:34:59;1.50;;;0.65;;
9675;SDS011;4876;42.656;23.292;2023-12-22T11:37:25;1.88;;;0.90;;
9675;SDS011;4876;42.656;23.292;2023-12-22T11:39:51;2.97;;;1.30;;
9675;SDS011;4876;42.656;23.292;2023-12-22T11:42:24;2.25;;;1.00;;
9675;SDS011;4876;42.656;23.292;2023-12-22T11:44:53;2.80;;;1.23;;
9675;SDS011;4876;42.656;23.292;2023-12-22T11:47:22;2.72;;;1.02;;
9675;SDS011;4876;42.656;23.292;2023-12-22T11:49:48;3.00;;;1.42;;
9675;SDS011;4876;42.656;23.292;2023-12-22T11:52:17;2.10;;;1.00;;
9675;SDS011;4876;42.656;23.292;2023-12-22T11:54:52;1.33;;;0.68;;
9675;SDS011;4876;42.656;23.292;2023-12-22T11:57:28;1.90;;;0.90;;
9675;SDS011;4876;42.656;23.292;2023-12-22T12:02:36;1.10;;;0.40;;
9675;SDS011;4876;42.656;23.292;2023-12-22T12:05:03;0.93;;;0.50;;
9675;SDS011;4876;42.656;23.292;2023-12-22T12:07:45;1.15;;;0.50;;
9675;SDS011;4876;42.656;23.292;2023-12-22T12:13:08;0.98;;;0.40;;
9675;SDS011;4876;42.656;23.292;2023-12-22T12:15:35;0.80;;;0.50;;
9675;SDS011;4876;42.656;23.292;2023-12-22T12:18:01;1.20;;;0.70;;
9675;SDS011;4876;42.656;23.292;2023-12-22T12:20:28;1.38;;;0.65;;
9675;SDS011;4876;42.656;23.292;2023-12-22T12:22:54;0.90;;;0.70;;
9675;SDS011;4876;42.656;23.292;2023-12-22T12:25:21;3.05;;;0.85;;
9675;SDS011;4876;42.656;23.292;2023-12-22T12:28:00;1.00;;;0.50;;
9675;SDS011;4876;42.656;23.292;2023-12-22T12:30:26;1.90;;;0.63;;
9675;SDS011;4876;42.656;23.292;2023-12-22T12:32:52;1.08;;;0.57;;
9675;SDS011;4876;42.656;23.292;2023-12-22T12:35:19;2.20;;;0.52;;
9675;SDS011;4876;42.656;23.292;2023-12-22T12:37:44;1.08;;;0.60;;
9675;SDS011;4876;42.656;23.292;2023-12-22T12:40:13;0.80;;;0.40;;
9675;SDS011;4876;42.656;23.292;2023-12-22T12:42:44;1.05;;;0.70;;
9675;SDS011;4876;42.656;23.292;2023-12-22T12:45:10;0.75;;;0.40;;
9675;SDS011;4876;42.656;23.292;2023-12-22T12:47:35;2.50;;;0.50;;
9675;SDS011;4876;42.656;23.292;2023-12-22T12:50:01;1.60;;;0.60;;
9675;SDS011;4876;42.656;23.292;2023-12-22T12:52:28;1.38;;;0.50;;
9675;SDS011;4876;42.656;23.292;2023-12-22T12:54:54;2.97;;;0.45;;
9675;SDS011;4876;42.656;23.292;2023-12-22T12:57:20;1.15;;;0.50;;
9675;SDS011;4876;42.656;23.292;2023-12-22T12:59:47;1.65;;;0.90;;
9675;SDS011;4876;42.656;23.292;2023-12-22T13:02:17;1.90;;;0.70;;
9675;SDS011;4876;42.656;23.292;2023-12-22T13:04:43;2.00;;;1.02;;
9675;SDS011;4876;42.656;23.292;2023-12-22T13:07:08;1.60;;;0.70;;
9675;SDS011;4876;42.656;23.292;2023-12-22T13:09:40;2.67;;;0.82;;
9675;SDS011;4876;42.656;23.292;2023-12-22T13:12:09;1.75;;;0.70;;
9675;SDS011;4876;42.656;23.292;2023-12-22T13:14:35;1.70;;;0.68;;
9675;SDS011;4876;42.656;23.292;2023-12-22T13:17:00;2.58;;;1.13;;
9675;SDS011;4876;42.656;23.292;2023-12-22T13:19:26;3.60;;;0.90;;
9675;SDS011;4876;42.656;23.292;2023-12-22T13:21:52;1.70;;;0.90;;
9675;SDS011;4876;42.656;23.292;2023-12-22T13:24:19;2.35;;;1.33;;
9675;SDS011;4876;42.656;23.292;2023-12-22T13:26:45;2.85;;;1.10;;
9675;SDS011;4876;42.656;23.292;2023-12-22T13:29:12;1.50;;;0.80;;
9675;SDS011;4876;42.656;23.292;2023-12-22T13:31:38;2.85;;;1.48;;
9675;SDS011;4876;42.656;23.292;2023-12-22T13:34:11;2.08;;;0.98;;
9675;SDS011;4876;42.656;23.292;2023-12-22T13:36:38;1.90;;;0.98;;
9675;SDS011;4876;42.656;23.292;2023-12-22T13:39:08;0.95;;;0.55;;
9675;SDS011;4876;42.656;23.292;2023-12-22T13:41:34;1.85;;;0.73;;
9675;SDS011;4876;42.656;23.292;2023-12-22T13:44:04;2.08;;;0.82;;
9675;SDS011;4876;42.656;23.292;2023-12-22T13:46:30;1.45;;;0.80;;
9675;SDS011;4876;42.656;23.292;2023-12-22T13:48:57;2.72;;;1.20;;
9675;SDS011;4876;42.656;23.292;2023-12-22T13:51:23;1.90;;;1.00;;
9675;SDS011;4876;42.656;23.292;2023-12-22T13:53:49;1.33;;;0.90;;
9675;SDS011;4876;42.656;23.292;2023-12-22T13:56:15;2.35;;;0.57;;
9675;SDS011;4876;42.656;23.292;2023-12-22T13:58:46;1.50;;;0.80;;
9675;SDS011;4876;42.656;23.292;2023-12-22T14:01:15;1.75;;;0.70;;
9675;SDS011;4876;42.656;23.292;2023-12-22T14:03:42;2.15;;;1.10;;
9675;SDS011;4876;42.656;23.292;2023-12-22T14:06:08;2.83;;;1.33;;
9675;SDS011;4876;42.656;23.292;2023-12-22T14:08:34;1.88;;;0.88;;
9675;SDS011;4876;42.656;23.292;2023-12-22T14:11:01;1.75;;;0.50;;
9675;SDS011;4876;42.656;23.292;2023-12-22T14:13:27;1.55;;;0.63;;
9675;SDS011;4876;42.656;23.292;2023-12-22T14:15:52;1.60;;;0.70;;
9675;SDS011;4876;42.656;23.292;2023-12-22T14:18:18;2.65;;;1.00;;
9675;SDS011;4876;42.656;23.292;2023-12-22T14:20:43;1.40;;;0.68;;
9675;SDS011;4876;42.656;23.292;2023-12-22T14:23:11;1.42;;;0.70;;
9675;SDS011;4876;42.656;23.292;2023-12-22T14:25:41;1.73;;;0.70;;
9675;SDS011;4876;42.656;23.292;2023-12-22T14:28:07;2.67;;;0.80;;
9675;SDS011;4876;42.656;23.292;2023-12-22T14:30:33;1.42;;;0.70;;
9675;SDS011;4876;42.656;23.292;2023-12-22T14:32:59;1.45;;;0.93;;
9675;SDS011;4876;42.656;23.292;2023-12-22T14:35:25;2.63;;;0.80;;
9675;SDS011;4876;42.656;23.292;2023-12-22T14:37:50;3.55;;;1.00;;
9675;SDS011;4876;42.656;23.292;2023-12-22T14:40:16;3.95;;;0.80;;
9675;SDS011;4876;42.656;23.292;2023-12-22T14:42:41;1.35;;;0.82;;
9675;SDS011;4876;42.656;23.292;2023-12-22T14:45:07;2.15;;;0.90;;
9675;SDS011;4876;42.656;23.292;2023-12-22T14:47:32;1.73;;;1.00;;
9675;SDS011;4876;42.656;23.292;2023-12-22T14:49:59;3.42;;;1.35;;
9675;SDS011;4876;42.656;23.292;2023-12-22T14:52:29;2.78;;;1.17;;
9675;SDS011;4876;42.656;23.292;2023-12-22T14:57:23;2.20;;;1.08;;
9675;SDS011;4876;42.656;23.292;2023-12-22T14:59:48;3.13;;;1.02;;